sensor_id;sensor_type;location;lat;lon;timestamp;pressure;altitude;pressure_sealevel;temperature;humidity
64668;BME280;51077;42.716;23.344;2023-06-14T00:00:13;95099.50;;;18.12;78.32
64668;BME280;51077;42.716;23.344;2023-06-14T00:02:40;95103.56;;;18.11;78.33
64668;BME280;51077;42.716;23.344;2023-06-14T00:05:07;95103.56;;;18.11;78.27
64668;BME280;51077;42.716;23.344;2023-06-14T00:07:37;95098.00;;;18.11;78.31
64668;BME280;51077;42.716;23.344;2023-06-14T00:10:08;95098.78;;;18.11;78.20
64668;BME280;51077;42.716;23.344;2023-06-14T00:12:33;95092.44;;;18.11;78.40
64668;BME280;51077;42.716;23.344;2023-06-14T00:14:59;95090.44;;;18.11;78.51
64668;BME280;51077;42.716;23.344;2023-06-14T00:17:27;95096.00;;;18.11;78.43
64668;BME280;51077;42.716;23.344;2023-06-14T00:19:56;95098.00;;;18.11;78.44
64668;BME280;51077;42.716;23.344;2023-06-14T00:22:22;95090.97;;;18.09;78.37
64668;BME280;51077;42.716;23.344;2023-06-14T00:24:50;95086.16;;;18.10;78.46
64668;BME280;51077;42.716;23.344;2023-06-14T00:27:15;95088.94;;;18.10;78.40
64668;BME280;51077;42.716;23.344;2023-06-14T00:29:41;95088.22;;;18.09;78.42
64668;BME280;51077;42.716;23.344;2023-06-14T00:32:06;95083.97;;;18.08;78.48
64668;BME280;51077;42.716;23.344;2023-06-14T00:34:32;95075.63;;;18.08;78.44
64668;BME280;51077;42.716;23.344;2023-06-14T00:36:58;95083.97;;;18.08;78.44
64668;BME280;51077;42.716;23.344;2023-06-14T00:39:23;95081.75;;;18.07;78.50
64668;BME280;51077;42.716;23.344;2023-06-14T00:41:49;95083.78;;;18.06;78.45
64668;BME280;51077;42.716;23.344;2023-06-14T00:44:16;95087.88;;;18.05;78.57
64668;BME280;51077;42.716;23.344;2023-06-14T00:46:42;95078.06;;;18.04;78.66
64668;BME280;51077;42.716;23.344;2023-06-14T00:49:08;95080.69;;;18.02;78.63
64668;BME280;51077;42.716;23.344;2023-06-14T00:51:33;95075.13;;;18.02;78.54
64668;BME280;51077;42.716;23.344;2023-06-14T00:53:59;95075.13;;;18.02;78.57
64668;BME280;51077;42.716;23.344;2023-06-14T00:56:26;95080.50;;;18.00;78.73
64668;BME280;51077;42.716;23.344;2023-06-14T00:58:52;95074.22;;;18.00;78.60
64668;BME280;51077;42.716;23.344;2023-06-14T01:01:18;95068.66;;;18.00;78.64
64668;BME280;51077;42.716;23.344;2023-06-14T01:03:43;95074.03;;;17.98;78.50
64668;BME280;51077;42.716;23.344;2023-06-14T01:15:01;95074.44;;;17.94;78.62
64668;BME280;51077;42.716;23.344;2023-06-14T01:17:28;95073.13;;;17.95;78.88
64668;BME280;51077;42.716;23.344;2023-06-14T01:19:58;95070.34;;;17.95;78.61
64668;BME280;51077;42.716;23.344;2023-06-14T01:22:28;95068.88;;;17.94;78.69
64668;BME280;51077;42.716;23.344;2023-06-14T01:24:53;95070.16;;;17.93;78.83
64668;BME280;51077;42.716;23.344;2023-06-14T01:27:23;95074.25;;;17.92;78.77
64668;BME280;51077;42.716;23.344;2023-06-14T01:29:51;95072.22;;;17.93;78.81
64668;BME280;51077;42.716;23.344;2023-06-14T01:32:23;95079.25;;;17.94;78.82
64668;BME280;51077;42.716;23.344;2023-06-14T01:34:49;95072.94;;;17.93;78.87
64668;BME280;51077;42.716;23.344;2023-06-14T01:37:15;95073.72;;;17.94;78.63
64668;BME280;51077;42.716;23.344;2023-06-14T01:39:43;95070.16;;;17.93;78.78
64668;BME280;51077;42.716;23.344;2023-06-14T01:42:09;95073.13;;;17.95;78.70
64668;BME280;51077;42.716;23.344;2023-06-14T01:44:36;95071.09;;;17.96;78.70
64668;BME280;51077;42.716;23.344;2023-06-14T01:47:02;95070.94;;;17.94;78.61
64668;BME280;51077;42.716;23.344;2023-06-14T01:49:28;95068.16;;;17.94;78.64
64668;BME280;51077;42.716;23.344;2023-06-14T01:51:53;95070.16;;;17.93;78.67
64668;BME280;51077;42.716;23.344;2023-06-14T01:54:19;95069.44;;;17.93;78.44
64668;BME280;51077;42.716;23.344;2023-06-14T01:56:44;95072.22;;;17.93;78.45
64668;BME280;51077;42.716;23.344;2023-06-14T01:59:10;95074.25;;;17.92;78.47
64668;BME280;51077;42.716;23.344;2023-06-14T02:01:35;95079.81;;;17.92;78.43
64668;BME280;51077;42.716;23.344;2023-06-14T02:04:01;95084.63;;;17.92;78.32
64668;BME280;51077;42.716;23.344;2023-06-14T02:06:27;95085.38;;;17.92;78.50
64668;BME280;51077;42.716;23.344;2023-06-14T02:08:53;95088.13;;;17.92;78.47
64668;BME280;51077;42.716;23.344;2023-06-14T02:11:18;95093.69;;;17.92;78.53
64668;BME280;51077;42.716;23.344;2023-06-14T02:13:44;95091.50;;;17.91;78.47
64668;BME280;51077;42.716;23.344;2023-06-14T02:16:10;95096.31;;;17.90;78.29
64668;BME280;51077;42.716;23.344;2023-06-14T02:18:36;95106.69;;;17.90;78.54
64668;BME280;51077;42.716;23.344;2023-06-14T02:21:01;95096.31;;;17.90;78.40
64668;BME280;51077;42.716;23.344;2023-06-14T02:23:26;95087.78;;;17.88;78.47
64668;BME280;51077;42.716;23.344;2023-06-14T02:25:52;95100.38;;;17.89;78.26
64668;BME280;51077;42.716;23.344;2023-06-14T02:28:18;95098.91;;;17.88;78.15
64668;BME280;51077;42.716;23.344;2023-06-14T02:30:43;95096.13;;;17.88;78.16
64668;BME280;51077;42.716;23.344;2023-06-14T02:33:09;95098.91;;;17.88;78.02
64668;BME280;51077;42.716;23.344;2023-06-14T02:35:38;95109.28;;;17.88;78.15
64668;BME280;51077;42.716;23.344;2023-06-14T02:38:03;95095.97;;;17.86;78.16
64668;BME280;51077;42.716;23.344;2023-06-14T02:40:29;95107.81;;;17.87;78.15
64668;BME280;51077;42.716;23.344;2023-06-14T02:42:54;95107.06;;;17.86;78.07
64668;BME280;51077;42.716;23.344;2023-06-14T02:45:19;95100.06;;;17.85;78.04
64668;BME280;51077;42.716;23.344;2023-06-14T02:47:46;95099.28;;;17.84;77.98
64668;BME280;51077;42.716;23.344;2023-06-14T02:50:11;95095.78;;;17.84;78.03
64668;BME280;51077;42.716;23.344;2023-06-14T02:52:36;95095.03;;;17.83;77.99
64668;BME280;51077;42.716;23.344;2023-06-14T02:55:03;95092.25;;;17.83;78.12
64668;BME280;51077;42.716;23.344;2023-06-14T02:57:29;95101.91;;;17.82;77.93
64668;BME280;51077;42.716;23.344;2023-06-14T02:59:54;95109.31;;;17.80;77.90
64668;BME280;51077;42.716;23.344;2023-06-14T03:02:20;95112.66;;;17.78;78.10
64668;BME280;51077;42.716;23.344;2023-06-14T03:04:45;95108.97;;;17.76;78.18
64668;BME280;51077;42.716;23.344;2023-06-14T03:07:12;95106.03;;;17.74;78.14
64668;BME280;51077;42.716;23.344;2023-06-14T03:09:39;95118.41;;;17.73;78.17
64668;BME280;51077;42.716;23.344;2023-06-14T03:12:05;95116.75;;;17.70;78.17
64668;BME280;51077;42.716;23.344;2023-06-14T03:14:35;95117.88;;;17.67;76.47
64668;BME280;51077;42.716;23.344;2023-06-14T03:17:00;95121.78;;;17.64;74.72
64668;BME280;51077;42.716;23.344;2023-06-14T03:19:26;95124.94;;;17.60;74.49
64668;BME280;51077;42.716;23.344;2023-06-14T03:21:52;95119.94;;;17.58;75.41
64668;BME280;51077;42.716;23.344;2023-06-14T03:24:19;95123.84;;;17.55;75.50
64668;BME280;51077;42.716;23.344;2023-06-14T03:26:45;95125.72;;;17.53;76.32
64668;BME280;51077;42.716;23.344;2023-06-14T03:29:10;95124.97;;;17.52;76.80
64668;BME280;51077;42.716;23.344;2023-06-14T03:31:36;95124.81;;;17.50;76.92
64668;BME280;51077;42.716;23.344;2023-06-14T03:34:02;95120.72;;;17.51;77.01
64668;BME280;51077;42.716;23.344;2023-06-14T03:36:27;95127.75;;;17.52;77.22
64668;BME280;51077;42.716;23.344;2023-06-14T03:38:53;95122.38;;;17.54;77.46
64668;BME280;51077;42.716;23.344;2023-06-14T03:41:19;95123.28;;;17.57;77.57
64668;BME280;51077;42.716;23.344;2023-06-14T03:43:45;95131.81;;;17.59;77.73
64668;BME280;51077;42.716;23.344;2023-06-14T03:46:10;95131.22;;;17.61;77.71
64668;BME280;51077;42.716;23.344;2023-06-14T03:48:35;95127.88;;;17.62;77.56
64668;BME280;51077;42.716;23.344;2023-06-14T03:51:01;95134.34;;;17.65;77.61
64668;BME280;51077;42.716;23.344;2023-06-14T03:53:27;95127.69;;;17.68;77.59
64668;BME280;51077;42.716;23.344;2023-06-14T03:55:54;95133.56;;;17.72;77.48
64668;BME280;51077;42.716;23.344;2023-06-14T03:58:20;95129.50;;;17.73;77.86
64668;BME280;51077;42.716;23.344;2023-06-14T04:00:45;95131.94;;;17.76;77.72
64668;BME280;51077;42.716;23.344;2023-06-14T04:03:11;95131.53;;;17.80;77.49
64668;BME280;51077;42.716;23.344;2023-06-14T04:05:38;95137.41;;;17.84;77.61
64668;BME280;51077;42.716;23.344;2023-06-14T04:08:07;95134.09;;;17.86;77.46
64668;BME280;51077;42.716;23.344;2023-06-14T04:10:34;95136.31;;;17.87;77.60
64668;BME280;51077;42.716;23.344;2023-06-14T04:13:00;95135.19;;;17.90;77.42
64668;BME280;51077;42.716;23.344;2023-06-14T04:15:25;95140.72;;;17.90;77.38
64668;BME280;51077;42.716;23.344;2023-06-14T04:17:53;95131.59;;;17.97;76.83
64668;BME280;51077;42.716;23.344;2023-06-14T04:20:22;95129.91;;;18.02;77.05
64668;BME280;51077;42.716;23.344;2023-06-14T04:22:49;95133.59;;;18.04;77.08
64668;BME280;51077;42.716;23.344;2023-06-14T04:25:14;95138.78;;;18.08;77.02
64668;BME280;51077;42.716;23.344;2023-06-14T04:27:40;95139.66;;;18.11;77.48
64668;BME280;51077;42.716;23.344;2023-06-14T04:30:07;95144.09;;;18.14;77.14
64668;BME280;51077;42.716;23.344;2023-06-14T04:32:33;95140.19;;;18.17;76.89
64668;BME280;51077;42.716;23.344;2023-06-14T04:35:07;95137.78;;;18.21;76.62
64668;BME280;51077;42.716;23.344;2023-06-14T04:37:33;95139.41;;;18.24;76.74
64668;BME280;51077;42.716;23.344;2023-06-14T04:40:00;95142.69;;;18.30;76.83
64668;BME280;51077;42.716;23.344;2023-06-14T04:42:26;95138.03;;;18.32;76.57
64668;BME280;51077;42.716;23.344;2023-06-14T04:44:56;95132.09;;;18.36;76.47
64668;BME280;51077;42.716;23.344;2023-06-14T04:47:22;95140.94;;;18.42;76.52
64668;BME280;51077;42.716;23.344;2023-06-14T04:49:50;95146.84;;;18.46;76.59
64668;BME280;51077;42.716;23.344;2023-06-14T04:52:19;95148.81;;;18.53;76.61
64668;BME280;51077;42.716;23.344;2023-06-14T04:54:46;95155.44;;;18.58;76.41
64668;BME280;51077;42.716;23.344;2023-06-14T04:57:12;95152.28;;;18.62;76.43
64668;BME280;51077;42.716;23.344;2023-06-14T04:59:39;95157.03;;;18.69;76.48
64668;BME280;51077;42.716;23.344;2023-06-14T05:02:04;95150.53;;;18.74;76.33
64668;BME280;51077;42.716;23.344;2023-06-14T05:04:31;95161.59;;;18.81;76.09
64668;BME280;51077;42.716;23.344;2023-06-14T05:06:57;95155.94;;;18.89;76.50
64668;BME280;51077;42.716;23.344;2023-06-14T05:09:22;95161.44;;;18.97;76.65
64668;BME280;51077;42.716;23.344;2023-06-14T05:11:48;95165.63;;;19.05;76.10
64668;BME280;51077;42.716;23.344;2023-06-14T05:14:14;95167.03;;;19.14;76.15
64668;BME280;51077;42.716;23.344;2023-06-14T05:16:40;95164.31;;;19.24;75.79
64668;BME280;51077;42.716;23.344;2023-06-14T05:19:06;95165.56;;;19.30;75.58
64668;BME280;51077;42.716;23.344;2023-06-14T05:21:32;95160.78;;;19.41;75.29
64668;BME280;51077;42.716;23.344;2023-06-14T05:24:00;95159.41;;;19.49;75.02
64668;BME280;51077;42.716;23.344;2023-06-14T05:26:26;95174.31;;;19.62;75.16
64668;BME280;51077;42.716;23.344;2023-06-14T05:28:56;95180.69;;;19.72;74.67
64668;BME280;51077;42.716;23.344;2023-06-14T05:31:26;95178.41;;;19.78;73.98
64668;BME280;51077;42.716;23.344;2023-06-14T05:33:52;95187.22;;;19.84;73.85
64668;BME280;51077;42.716;23.344;2023-06-14T05:36:19;95184.94;;;19.90;73.83
64668;BME280;51077;42.716;23.344;2023-06-14T05:38:45;95188.03;;;19.94;73.59
64668;BME280;51077;42.716;23.344;2023-06-14T05:41:10;95192.44;;;19.97;73.15
64668;BME280;51077;42.716;23.344;2023-06-14T05:43:36;95186.31;;;19.99;72.71
64668;BME280;51077;42.716;23.344;2023-06-14T05:46:01;95181.47;;;19.99;72.31
64668;BME280;51077;42.716;23.344;2023-06-14T05:48:27;95192.94;;;20.03;73.05
64668;BME280;51077;42.716;23.344;2023-06-14T05:50:52;95193.09;;;20.05;73.07
64668;BME280;51077;42.716;23.344;2023-06-14T05:53:18;95193.81;;;20.06;73.05
64668;BME280;51077;42.716;23.344;2023-06-14T05:55:43;95193.25;;;20.07;72.95
64668;BME280;51077;42.716;23.344;2023-06-14T05:58:09;95189.16;;;20.08;72.76
64668;BME280;51077;42.716;23.344;2023-06-14T06:00:36;95188.75;;;20.12;72.99
64668;BME280;51077;42.716;23.344;2023-06-14T06:03:02;95193.91;;;20.16;71.49
64668;BME280;51077;42.716;23.344;2023-06-14T06:05:27;95202.53;;;20.20;72.13
64668;BME280;51077;42.716;23.344;2023-06-14T06:07:53;95200.84;;;20.24;72.22
64668;BME280;51077;42.716;23.344;2023-06-14T06:10:18;95195.41;;;20.26;72.36
64668;BME280;51077;42.716;23.344;2023-06-14T06:12:45;95202.75;;;20.31;71.50
64668;BME280;51077;42.716;23.344;2023-06-14T06:15:12;95194.00;;;20.35;71.43
64668;BME280;51077;42.716;23.344;2023-06-14T06:17:38;95192.25;;;20.40;70.96
64668;BME280;51077;42.716;23.344;2023-06-14T06:20:05;95199.78;;;20.47;70.53
64668;BME280;51077;42.716;23.344;2023-06-14T06:22:33;95199.66;;;20.54;70.57
64668;BME280;51077;42.716;23.344;2023-06-14T06:24:58;95200.28;;;20.63;70.44
64668;BME280;51077;42.716;23.344;2023-06-14T06:27:24;95201.34;;;20.67;69.91
64668;BME280;51077;42.716;23.344;2023-06-14T06:29:49;95204.59;;;20.73;70.04
64668;BME280;51077;42.716;23.344;2023-06-14T06:32:17;95204.31;;;20.79;70.11
64668;BME280;51077;42.716;23.344;2023-06-14T06:34:42;95214.47;;;20.84;69.87
64668;BME280;51077;42.716;23.344;2023-06-14T06:37:07;95211.84;;;20.86;69.67
64668;BME280;51077;42.716;23.344;2023-06-14T06:39:33;95211.97;;;20.88;69.33
64668;BME280;51077;42.716;23.344;2023-06-14T06:41:58;95212.88;;;20.91;69.64
64668;BME280;51077;42.716;23.344;2023-06-14T06:44:24;95213.03;;;20.93;69.40
64668;BME280;51077;42.716;23.344;2023-06-14T06:46:49;95213.19;;;20.95;69.05
64668;BME280;51077;42.716;23.344;2023-06-14T06:49:15;95209.22;;;20.98;68.90
64668;BME280;51077;42.716;23.344;2023-06-14T06:51:41;95208.66;;;20.99;68.80
64668;BME280;51077;42.716;23.344;2023-06-14T06:54:08;95213.78;;;21.03;69.14
64668;BME280;51077;42.716;23.344;2023-06-14T06:56:34;95211.56;;;21.01;68.46
64668;BME280;51077;42.716;23.344;2023-06-14T06:59:00;95217.31;;;21.03;68.01
64668;BME280;51077;42.716;23.344;2023-06-14T07:01:25;95218.34;;;21.08;68.37
64668;BME280;51077;42.716;23.344;2023-06-14T07:03:51;95219.69;;;21.17;67.43
64668;BME280;51077;42.716;23.344;2023-06-14T07:06:16;95214.84;;;21.17;66.89
64668;BME280;51077;42.716;23.344;2023-06-14T07:08:44;95206.91;;;21.14;66.54
64668;BME280;51077;42.716;23.344;2023-06-14T07:11:09;95211.75;;;21.13;66.60
64668;BME280;51077;42.716;23.344;2023-06-14T07:13:35;95221.78;;;21.26;66.58
64668;BME280;51077;42.716;23.344;2023-06-14T07:16:01;95218.00;;;21.41;66.31
64668;BME280;51077;42.716;23.344;2023-06-14T07:18:26;95214.34;;;21.57;66.37
64668;BME280;51077;42.716;23.344;2023-06-14T07:20:53;95216.69;;;21.71;65.48
64668;BME280;51077;42.716;23.344;2023-06-14T07:23:19;95206.53;;;21.85;64.59
64668;BME280;51077;42.716;23.344;2023-06-14T07:25:45;95208.88;;;21.98;64.33
64668;BME280;51077;42.716;23.344;2023-06-14T07:28:10;95212.84;;;22.15;63.82
64668;BME280;51077;42.716;23.344;2023-06-14T07:30:36;95211.50;;;22.35;63.54
64668;BME280;51077;42.716;23.344;2023-06-14T07:33:01;95209.94;;;22.53;63.39
64668;BME280;51077;42.716;23.344;2023-06-14T07:35:27;95207.69;;;22.71;62.81
64668;BME280;51077;42.716;23.344;2023-06-14T07:37:52;95210.69;;;22.85;62.76
64668;BME280;51077;42.716;23.344;2023-06-14T07:40:18;95204.78;;;23.00;62.13
64668;BME280;51077;42.716;23.344;2023-06-14T07:42:44;95211.31;;;23.15;60.99
64668;BME280;51077;42.716;23.344;2023-06-14T07:45:10;95204.63;;;23.29;60.96
64668;BME280;51077;42.716;23.344;2023-06-14T07:47:35;95203.66;;;23.58;60.26
64668;BME280;51077;42.716;23.344;2023-06-14T07:50:00;95207.59;;;23.86;59.01
64668;BME280;51077;42.716;23.344;2023-06-14T07:52:26;95200.88;;;24.13;57.91
64668;BME280;51077;42.716;23.344;2023-06-14T07:54:51;95210.22;;;24.39;58.82
64668;BME280;51077;42.716;23.344;2023-06-14T07:57:17;95224.41;;;24.64;56.47
64668;BME280;51077;42.716;23.344;2023-06-14T07:59:45;95214.91;;;24.81;55.81
64668;BME280;51077;42.716;23.344;2023-06-14T08:02:10;95223.47;;;24.95;55.37
64668;BME280;51077;42.716;23.344;2023-06-14T08:04:36;95221.38;;;25.07;55.13
64668;BME280;51077;42.716;23.344;2023-06-14T08:07:01;95222.97;;;25.10;54.43
64668;BME280;51077;42.716;23.344;2023-06-14T08:09:27;95216.63;;;25.21;54.32
64668;BME280;51077;42.716;23.344;2023-06-14T08:11:54;95224.53;;;25.37;54.09
64668;BME280;51077;42.716;23.344;2023-06-14T08:14:19;95228.94;;;25.28;52.92
64668;BME280;51077;42.716;23.344;2023-06-14T08:16:45;95238.84;;;25.29;53.10
64668;BME280;51077;42.716;23.344;2023-06-14T08:19:10;95233.22;;;25.41;52.55
64668;BME280;51077;42.716;23.344;2023-06-14T08:21:36;95235.91;;;25.39;52.02
64668;BME280;51077;42.716;23.344;2023-06-14T08:24:01;95241.63;;;25.41;51.81
64668;BME280;51077;42.716;23.344;2023-06-14T08:26:27;95231.44;;;25.71;50.78
64668;BME280;51077;42.716;23.344;2023-06-14T08:28:54;95237.66;;;25.81;50.19
64668;BME280;51077;42.716;23.344;2023-06-14T08:31:20;95232.16;;;25.83;50.41
64668;BME280;51077;42.716;23.344;2023-06-14T08:33:45;95240.44;;;25.93;50.13
64668;BME280;51077;42.716;23.344;2023-06-14T08:36:11;95242.13;;;25.98;50.71
64668;BME280;51077;42.716;23.344;2023-06-14T08:38:37;95233.41;;;26.05;49.97
64668;BME280;51077;42.716;23.344;2023-06-14T08:41:04;95238.03;;;26.13;49.51
64668;BME280;51077;42.716;23.344;2023-06-14T08:43:31;95230.84;;;26.10;50.02
64668;BME280;51077;42.716;23.344;2023-06-14T08:46:02;95225.53;;;26.16;48.99
64668;BME280;51077;42.716;23.344;2023-06-14T08:48:28;95228.94;;;26.26;48.34
64668;BME280;51077;42.716;23.344;2023-06-14T08:50:59;95225.47;;;26.27;48.24
64668;BME280;51077;42.716;23.344;2023-06-14T08:53:28;95220.59;;;26.28;47.64
64668;BME280;51077;42.716;23.344;2023-06-14T08:55:57;95217.78;;;26.53;48.11
64668;BME280;51077;42.716;23.344;2023-06-14T08:58:25;95219.25;;;26.68;47.30
64668;BME280;51077;42.716;23.344;2023-06-14T09:00:51;95213.25;;;26.88;46.43
64668;BME280;51077;42.716;23.344;2023-06-14T09:03:18;95215.91;;;27.11;46.29
64668;BME280;51077;42.716;23.344;2023-06-14T09:05:45;95215.59;;;27.33;46.11
64668;BME280;51077;42.716;23.344;2023-06-14T09:08:12;95220.88;;;27.54;45.79
64668;BME280;51077;42.716;23.344;2023-06-14T09:10:39;95213.47;;;27.74;45.77
64668;BME280;51077;42.716;23.344;2023-06-14T09:13:06;95208.66;;;28.06;43.81
64668;BME280;51077;42.716;23.344;2023-06-14T09:15:32;95211.41;;;28.04;43.31
64668;BME280;51077;42.716;23.344;2023-06-14T09:17:57;95201.03;;;28.09;42.71
64668;BME280;51077;42.716;23.344;2023-06-14T09:20:24;95205.97;;;28.09;42.92
64668;BME280;51077;42.716;23.344;2023-06-14T09:22:50;95194.69;;;28.24;43.33
64668;BME280;51077;42.716;23.344;2023-06-14T09:25:15;95202.63;;;28.28;42.71
64668;BME280;51077;42.716;23.344;2023-06-14T09:27:41;95198.53;;;28.31;42.79
64668;BME280;51077;42.716;23.344;2023-06-14T09:30:09;95201.22;;;28.13;43.14
64668;BME280;51077;42.716;23.344;2023-06-14T09:32:39;95199.53;;;27.92;42.81
64668;BME280;51077;42.716;23.344;2023-06-14T09:35:08;95201.09;;;27.81;43.25
64668;BME280;51077;42.716;23.344;2023-06-14T09:37:35;95200.59;;;27.85;43.09
64668;BME280;51077;42.716;23.344;2023-06-14T09:40:01;95196.22;;;27.82;43.64
64668;BME280;51077;42.716;23.344;2023-06-14T09:42:26;95197.06;;;27.71;43.24
64668;BME280;51077;42.716;23.344;2023-06-14T09:44:55;95194.34;;;27.73;43.57
64668;BME280;51077;42.716;23.344;2023-06-14T09:47:21;95190.66;;;27.84;43.05
64668;BME280;51077;42.716;23.344;2023-06-14T09:49:47;95187.56;;;27.78;43.73
64668;BME280;51077;42.716;23.344;2023-06-14T09:52:22;95185.56;;;28.10;42.64
64668;BME280;51077;42.716;23.344;2023-06-14T09:54:49;95186.38;;;28.42;42.41
64668;BME280;51077;42.716;23.344;2023-06-14T09:57:17;95187.66;;;28.71;42.98
64668;BME280;51077;42.716;23.344;2023-06-14T09:59:46;95186.94;;;28.86;41.26
64668;BME280;51077;42.716;23.344;2023-06-14T10:02:25;95175.44;;;28.82;41.34
64668;BME280;51077;42.716;23.344;2023-06-14T10:05:05;95176.94;;;28.83;41.03
64668;BME280;51077;42.716;23.344;2023-06-14T10:07:44;95169.97;;;28.86;41.47
64668;BME280;51077;42.716;23.344;2023-06-14T10:10:13;95168.81;;;29.07;41.70
64668;BME280;51077;42.716;23.344;2023-06-14T10:12:39;95172.63;;;29.14;41.21
64668;BME280;51077;42.716;23.344;2023-06-14T10:15:08;95168.50;;;29.17;43.52
64668;BME280;51077;42.716;23.344;2023-06-14T10:17:45;95155.91;;;29.20;40.87
64668;BME280;51077;42.716;23.344;2023-06-14T10:21:06;95158.22;;;29.08;41.22
64668;BME280;51077;42.716;23.344;2023-06-14T10:23:13;95158.16;;;29.05;41.68
64668;BME280;51077;42.716;23.344;2023-06-14T10:25:42;95148.84;;;29.03;41.79
64668;BME280;51077;42.716;23.344;2023-06-14T10:28:17;95148.84;;;28.87;41.54
64668;BME280;51077;42.716;23.344;2023-06-14T10:31:15;95153.28;;;29.08;43.80
64668;BME280;51077;42.716;23.344;2023-06-14T10:38:57;95142.97;;;30.18;40.14
64668;BME280;51077;42.716;23.344;2023-06-14T10:41:23;95147.31;;;30.21;37.70
64668;BME280;51077;42.716;23.344;2023-06-14T10:43:48;95140.59;;;30.30;38.34
64668;BME280;51077;42.716;23.344;2023-06-14T10:48:41;95135.94;;;30.57;36.92
64668;BME280;51077;42.716;23.344;2023-06-14T10:51:15;95141.06;;;31.00;35.85
64668;BME280;51077;42.716;23.344;2023-06-14T10:53:45;95133.50;;;31.26;36.05
64668;BME280;51077;42.716;23.344;2023-06-14T10:56:29;95128.03;;;31.13;36.00
64668;BME280;51077;42.716;23.344;2023-06-14T10:58:56;95118.41;;;30.80;37.30
64668;BME280;51077;42.716;23.344;2023-06-14T11:01:36;95116.03;;;30.54;40.45
64668;BME280;51077;42.716;23.344;2023-06-14T11:04:11;95113.59;;;30.27;38.43
64668;BME280;51077;42.716;23.344;2023-06-14T11:07:10;95105.59;;;30.03;39.33
64668;BME280;51077;42.716;23.344;2023-06-14T11:12:36;95108.03;;;29.58;39.23
64668;BME280;51077;42.716;23.344;2023-06-14T11:15:02;95107.00;;;29.67;38.23
64668;BME280;51077;42.716;23.344;2023-06-14T11:17:28;95101.25;;;29.65;38.40
64668;BME280;51077;42.716;23.344;2023-06-14T11:20:11;95102.94;;;29.90;38.24
64668;BME280;51077;42.716;23.344;2023-06-14T11:22:44;95097.50;;;30.14;37.39
64668;BME280;51077;42.716;23.344;2023-06-14T11:25:14;95094.56;;;30.29;37.89
64668;BME280;51077;42.716;23.344;2023-06-14T11:27:42;95096.56;;;30.65;36.41
64668;BME280;51077;42.716;23.344;2023-06-14T11:30:09;95085.38;;;31.09;35.63
64668;BME280;51077;42.716;23.344;2023-06-14T11:32:37;95091.66;;;31.27;35.31
64668;BME280;51077;42.716;23.344;2023-06-14T11:35:04;95090.44;;;31.32;34.54
64668;BME280;51077;42.716;23.344;2023-06-14T11:37:30;95086.69;;;31.47;34.85
64668;BME280;51077;42.716;23.344;2023-06-14T11:40:04;95090.06;;;31.64;33.88
64668;BME280;51077;42.716;23.344;2023-06-14T11:42:33;95089.47;;;31.45;34.11
64668;BME280;51077;42.716;23.344;2023-06-14T11:44:59;95085.19;;;31.44;33.27
64668;BME280;51077;42.716;23.344;2023-06-14T11:47:24;95075.28;;;31.67;33.05
64668;BME280;51077;42.716;23.344;2023-06-14T11:49:58;95077.66;;;31.75;32.88
64668;BME280;51077;42.716;23.344;2023-06-14T11:52:23;95070.31;;;31.68;32.74
64668;BME280;51077;42.716;23.344;2023-06-14T11:54:49;95063.91;;;31.23;33.66
64668;BME280;51077;42.716;23.344;2023-06-14T11:57:14;95064.19;;;30.90;34.24
64668;BME280;51077;42.716;23.344;2023-06-14T11:59:40;95055.44;;;30.64;34.93
64668;BME280;51077;42.716;23.344;2023-06-14T12:02:06;95051.53;;;30.33;36.00
64668;BME280;51077;42.716;23.344;2023-06-14T12:04:32;95052.22;;;30.14;35.49
64668;BME280;51077;42.716;23.344;2023-06-14T12:07:11;95042.28;;;29.95;36.32
64668;BME280;51077;42.716;23.344;2023-06-14T12:12:25;95033.81;;;30.33;35.71
64668;BME280;51077;42.716;23.344;2023-06-14T12:14:51;95029.97;;;30.64;35.26
64668;BME280;51077;42.716;23.344;2023-06-14T12:17:17;95026.94;;;30.99;34.36
64668;BME280;51077;42.716;23.344;2023-06-14T12:19:43;95032.66;;;31.43;33.45
64668;BME280;51077;42.716;23.344;2023-06-14T12:22:13;95027.84;;;31.70;33.37
64668;BME280;51077;42.716;23.344;2023-06-14T12:24:39;95023.97;;;31.37;33.46
64668;BME280;51077;42.716;23.344;2023-06-14T12:27:07;95019.47;;;31.30;33.37
64668;BME280;51077;42.716;23.344;2023-06-14T12:29:33;95017.00;;;31.20;33.79
64668;BME280;51077;42.716;23.344;2023-06-14T12:31:58;95017.84;;;30.81;34.48
64668;BME280;51077;42.716;23.344;2023-06-14T12:34:24;95025.69;;;30.63;34.62
64668;BME280;51077;42.716;23.344;2023-06-14T12:36:50;95015.81;;;30.24;35.13
64668;BME280;51077;42.716;23.344;2023-06-14T12:39:16;95021.75;;;29.94;35.76
64668;BME280;51077;42.716;23.344;2023-06-14T12:41:42;95015.63;;;30.00;34.83
64668;BME280;51077;42.716;23.344;2023-06-14T12:44:07;95011.06;;;30.11;34.92
64668;BME280;51077;42.716;23.344;2023-06-14T12:46:33;95001.28;;;30.34;34.43
64668;BME280;51077;42.716;23.344;2023-06-14T12:48:58;95005.59;;;30.35;34.18
64668;BME280;51077;42.716;23.344;2023-06-14T12:51:24;95003.34;;;29.93;34.92
64668;BME280;51077;42.716;23.344;2023-06-14T12:53:50;95000.19;;;29.85;34.97
64668;BME280;51077;42.716;23.344;2023-06-14T12:56:16;94992.94;;;29.80;34.94
64668;BME280;51077;42.716;23.344;2023-06-14T12:58:42;94988.34;;;29.71;34.92
64668;BME280;51077;42.716;23.344;2023-06-14T13:01:07;94990.78;;;29.25;35.30
64668;BME280;51077;42.716;23.344;2023-06-14T13:03:33;95005.94;;;28.98;35.48
64668;BME280;51077;42.716;23.344;2023-06-14T13:05:59;94998.13;;;28.96;35.27
64668;BME280;51077;42.716;23.344;2023-06-14T13:08:25;95006.53;;;28.78;36.02
64668;BME280;51077;42.716;23.344;2023-06-14T13:10:51;94993.56;;;28.55;36.13